createdAt,value
2022-09-22T09:32:06.558Z,658.13
2022-09-22T09:33:06.553Z,680.63
2022-09-22T09:34:06.567Z,652.50
2022-09-22T09:35:06.604Z,658.13
2022-09-22T09:36:06.634Z,663.75
2022-09-22T09:37:06.606Z,646.88
2022-09-22T09:38:06.608Z,663.75
2022-09-22T09:39:06.712Z,731.25
2022-09-22T09:40:06.670Z,720.00
2022-09-22T09:41:06.655Z,720.00
2022-09-22T09:42:06.658Z,703.13
2022-09-22T09:43:06.673Z,686.25
2022-09-22T09:44:06.690Z,680.63
2022-09-22T09:45:06.697Z,680.63
2022-09-22T09:46:06.755Z,697.50
2022-09-22T09:47:06.729Z,708.75
2022-09-22T09:48:06.763Z,725.63
2022-09-22T09:49:06.748Z,742.50
2022-09-22T09:50:06.759Z,742.50
2022-09-22T09:51:06.786Z,798.75
2022-09-22T09:52:06.784Z,843.75
2022-09-22T09:53:08.692Z,798.75
2022-09-22T09:54:06.979Z,787.50
2022-09-22T09:55:06.831Z,804.38
2022-09-22T09:56:06.838Z,804.38
2022-09-22T09:57:06.855Z,821.25
2022-09-22T09:58:06.871Z,849.38
2022-09-22T09:59:07.009Z,888.75
2022-09-22T10:00:06.890Z,1057.50
2022-09-22T10:01:06.908Z,888.75
2022-09-22T10:02:06.922Z,883.13
2022-09-22T10:03:06.933Z,933.75
2022-09-22T10:04:06.962Z,1035.00
2022-09-22T10:05:06.961Z,967.50
2022-09-22T10:06:06.982Z,967.50
2022-09-22T10:07:06.987Z,978.75
2022-09-22T10:08:06.997Z,922.50
2022-09-22T10:09:07.044Z,1085.63
2022-09-22T10:10:07.028Z,877.50
2022-09-22T10:11:07.036Z,883.13
2022-09-22T10:12:07.066Z,877.50
2022-09-22T10:13:07.071Z,877.50
2022-09-22T10:14:07.084Z,900.00
2022-09-22T10:15:07.091Z,933.75
2022-09-22T10:16:07.275Z,911.25
2022-09-22T10:17:07.131Z,939.38
2022-09-22T10:18:07.140Z,871.88
2022-09-22T10:19:07.148Z,855.00
2022-09-22T10:20:07.180Z,855.00
2022-09-22T10:21:07.203Z,860.63
2022-09-22T10:22:07.196Z,871.88
2022-09-22T10:23:07.258Z,2266.88
2022-09-22T10:24:07.284Z,1113.75
2022-09-22T10:25:07.240Z,978.75
2022-09-22T10:26:10.069Z,928.13
2022-09-22T10:27:07.621Z,916.88
2022-09-22T10:28:07.283Z,945.00
2022-09-22T10:29:07.288Z,900.00
2022-09-22T16:10:06.301Z,61.88
2022-09-22T16:11:06.290Z,61.88
2022-09-22T16:12:06.300Z,61.88
2022-09-22T16:13:06.308Z,56.25
2022-09-22T16:14:06.324Z,56.25
2022-09-22T16:15:06.346Z,56.25
2022-09-22T16:16:06.386Z,56.25
2022-09-22T16:17:06.361Z,56.25
2022-09-22T16:18:06.373Z,50.63
2022-09-22T16:19:06.387Z,50.63
2022-09-22T16:20:06.399Z,50.63
2022-09-22T16:21:06.415Z,50.63
2022-09-22T16:22:06.423Z,50.63
2022-09-22T16:23:06.440Z,50.63
2022-09-22T16:24:06.721Z,45.00
2022-09-22T16:25:06.469Z,45.00
2022-09-22T16:26:06.499Z,45.00
2022-09-22T16:28:29.125Z,45.00
2022-09-22T16:29:29.128Z,39.38
2022-09-22T16:30:29.147Z,39.38
2022-09-22T16:31:29.204Z,39.38
2022-09-22T16:32:29.164Z,39.38
2022-09-22T16:33:29.185Z,39.38
2022-09-22T16:34:29.195Z,39.38
2022-09-22T16:36:54.462Z,33.75
2022-09-22T16:37:51.851Z,33.75
2022-09-22T16:38:51.854Z,33.75
2022-09-22T16:39:51.876Z,33.75
2022-09-22T16:40:51.883Z,28.13
2022-09-22T16:41:51.911Z,28.13
2022-09-22T16:42:51.901Z,28.13
2022-09-22T16:43:51.918Z,28.13
2022-09-22T16:44:51.925Z,28.13
2022-09-22T16:45:51.943Z,28.13
2022-09-22T16:46:51.997Z,22.50
2022-09-22T16:47:51.959Z,22.50
2022-09-22T16:48:51.979Z,22.50
2022-09-22T16:49:54.768Z,22.50
2022-09-22T17:18:04.372Z,0.00
2022-09-22T17:19:04.363Z,0.00
2022-09-22T17:20:04.441Z,0.00
2022-09-22T17:21:04.374Z,0.00
2022-09-22T17:22:04.396Z,0.00
2022-09-22T17:24:06.988Z,0.00
